VOHY/HYD METAR and TAF weather

Enter ICAO airport designator
Station Type Date Time Source
VOHY METAR 2022/01/29 10:00 UTC NOAA

VOHY 291000Z VRB02KT 6000 NSC 27/05 Q1016 NOSIG


Station Type Date Time Source
VOHY Decoded METAR 2022/01/29 10:00 UTC NOAA

Hyderabad Airport, India (VOHY) 17-27N 078-28E 545M
Jan 29, 2022 - 05:00 AM EST / 2022.01.29 1000 UTC
Wind: Variable at 2 MPH (2 KT):0
Visibility: 3 mile(s):0
Temperature: 80 F (27 C)
Dew Point: 41 F (5 C)
Relative Humidity: 24%
Pressure (altimeter): 30.00 in. Hg (1016 hPa)
ob: VOHY 291000Z VRB02KT 6000 NSC 27/05 Q1016 NOSIG
cycle: 10

Station Type Date Time Source
VOHY TAF 2022/01/14 06:00 UTC NOAA

VOHY 140500Z 1406/1415 16008KT 5000 HZ SCT015 SCT025
TEMPO 1409/1414 3000 RA BR FEW030CB BKN100

Example: see airport list